sensor_id;sensor_type;location;lat;lon;timestamp;P1;durP1;ratioP1;P2;durP2;ratioP2
14903;SDS011;7543;53.148;8.234;2023-10-09T00:00:26;4.20;;;1.63;;
14903;SDS011;7543;53.148;8.234;2023-10-09T00:03:17;2.23;;;1.60;;
14903;SDS011;7543;53.148;8.234;2023-10-09T00:05:54;4.27;;;1.70;;
14903;SDS011;7543;53.148;8.234;2023-10-09T00:08:23;2.67;;;1.80;;
14903;SDS011;7543;53.148;8.234;2023-10-09T00:10:57;3.97;;;1.60;;
14903;SDS011;7543;53.148;8.234;2023-10-09T00:13:43;3.87;;;1.70;;
14903;SDS011;7543;53.148;8.234;2023-10-09T00:16:24;1.77;;;1.27;;
14903;SDS011;7543;53.148;8.234;2023-10-09T00:19:01;3.63;;;1.40;;
14903;SDS011;7543;53.148;8.234;2023-10-09T00:21:40;3.03;;;1.57;;
14903;SDS011;7543;53.148;8.234;2023-10-09T00:24:09;4.27;;;1.60;;
14903;SDS011;7543;53.148;8.234;2023-10-09T00:26:41;4.30;;;1.50;;
14903;SDS011;7543;53.148;8.234;2023-10-09T00:29:12;2.80;;;1.63;;
14903;SDS011;7543;53.148;8.234;2023-10-09T00:31:51;5.50;;;1.70;;
14903;SDS011;7543;53.148;8.234;2023-10-09T00:34:22;3.73;;;1.60;;
14903;SDS011;7543;53.148;8.234;2023-10-09T00:36:53;5.97;;;1.67;;
14903;SDS011;7543;53.148;8.234;2023-10-09T00:39:23;2.83;;;1.50;;
14903;SDS011;7543;53.148;8.234;2023-10-09T00:42:10;3.63;;;1.87;;
14903;SDS011;7543;53.148;8.234;2023-10-09T00:44:41;3.50;;;1.70;;
14903;SDS011;7543;53.148;8.234;2023-10-09T00:47:12;3.30;;;1.50;;
14903;SDS011;7543;53.148;8.234;2023-10-09T00:49:57;4.47;;;1.70;;
14903;SDS011;7543;53.148;8.234;2023-10-09T00:52:28;4.10;;;1.70;;
14903;SDS011;7543;53.148;8.234;2023-10-09T00:55:04;2.13;;;1.50;;
14903;SDS011;7543;53.148;8.234;2023-10-09T00:57:41;3.07;;;1.50;;
14903;SDS011;7543;53.148;8.234;2023-10-09T01:00:14;4.10;;;1.87;;
14903;SDS011;7543;53.148;8.234;2023-10-09T01:03:03;4.63;;;1.80;;
14903;SDS011;7543;53.148;8.234;2023-10-09T01:05:47;4.50;;;1.80;;
14903;SDS011;7543;53.148;8.234;2023-10-09T01:08:25;3.00;;;1.47;;
14903;SDS011;7543;53.148;8.234;2023-10-09T01:10:57;5.03;;;1.67;;
14903;SDS011;7543;53.148;8.234;2023-10-09T01:13:36;2.97;;;1.40;;
14903;SDS011;7543;53.148;8.234;2023-10-09T01:16:21;3.90;;;1.80;;
14903;SDS011;7543;53.148;8.234;2023-10-09T01:18:52;5.33;;;2.10;;
14903;SDS011;7543;53.148;8.234;2023-10-09T01:21:25;3.80;;;1.67;;
14903;SDS011;7543;53.148;8.234;2023-10-09T01:23:55;4.23;;;1.60;;
14903;SDS011;7543;53.148;8.234;2023-10-09T01:26:36;5.53;;;1.73;;
14903;SDS011;7543;53.148;8.234;2023-10-09T01:29:11;2.87;;;1.50;;
14903;SDS011;7543;53.148;8.234;2023-10-09T01:31:43;3.83;;;1.80;;
14903;SDS011;7543;53.148;8.234;2023-10-09T01:34:18;4.10;;;1.90;;
14903;SDS011;7543;53.148;8.234;2023-10-09T01:36:51;4.53;;;1.50;;
14903;SDS011;7543;53.148;8.234;2023-10-09T01:39:25;3.63;;;1.63;;
14903;SDS011;7543;53.148;8.234;2023-10-09T01:41:54;4.30;;;1.70;;
14903;SDS011;7543;53.148;8.234;2023-10-09T01:44:26;4.57;;;1.70;;
14903;SDS011;7543;53.148;8.234;2023-10-09T01:46:57;2.33;;;1.57;;
14903;SDS011;7543;53.148;8.234;2023-10-09T01:49:25;3.03;;;1.97;;
14903;SDS011;7543;53.148;8.234;2023-10-09T01:51:59;5.97;;;1.80;;
14903;SDS011;7543;53.148;8.234;2023-10-09T01:54:36;3.50;;;1.80;;
14903;SDS011;7543;53.148;8.234;2023-10-09T01:57:04;3.20;;;1.63;;
14903;SDS011;7543;53.148;8.234;2023-10-09T01:59:37;5.60;;;1.97;;
14903;SDS011;7543;53.148;8.234;2023-10-09T02:02:11;4.40;;;1.80;;
14903;SDS011;7543;53.148;8.234;2023-10-09T02:04:52;2.90;;;1.73;;
14903;SDS011;7543;53.148;8.234;2023-10-09T02:07:23;3.83;;;1.70;;
14903;SDS011;7543;53.148;8.234;2023-10-09T02:09:56;4.73;;;2.27;;
14903;SDS011;7543;53.148;8.234;2023-10-09T02:12:24;3.93;;;2.00;;
14903;SDS011;7543;53.148;8.234;2023-10-09T02:15:00;2.83;;;1.90;;
14903;SDS011;7543;53.148;8.234;2023-10-09T02:17:35;4.50;;;1.90;;
14903;SDS011;7543;53.148;8.234;2023-10-09T02:20:22;2.70;;;1.80;;
14903;SDS011;7543;53.148;8.234;2023-10-09T02:22:57;3.40;;;1.70;;
14903;SDS011;7543;53.148;8.234;2023-10-09T02:25:27;8.40;;;1.70;;
14903;SDS011;7543;53.148;8.234;2023-10-09T02:28:01;3.90;;;1.67;;
14903;SDS011;7543;53.148;8.234;2023-10-09T02:30:32;3.00;;;1.77;;
14903;SDS011;7543;53.148;8.234;2023-10-09T02:33:01;5.30;;;1.93;;
14903;SDS011;7543;53.148;8.234;2023-10-09T02:35:36;8.47;;;2.17;;
14903;SDS011;7543;53.148;8.234;2023-10-09T02:38:09;3.60;;;1.77;;
14903;SDS011;7543;53.148;8.234;2023-10-09T02:40:42;2.93;;;1.60;;
14903;SDS011;7543;53.148;8.234;2023-10-09T02:43:31;3.80;;;1.70;;
14903;SDS011;7543;53.148;8.234;2023-10-09T02:46:11;4.53;;;2.13;;
14903;SDS011;7543;53.148;8.234;2023-10-09T02:48:44;4.43;;;1.70;;
14903;SDS011;7543;53.148;8.234;2023-10-09T02:51:18;5.00;;;1.63;;
14903;SDS011;7543;53.148;8.234;2023-10-09T02:54:00;3.40;;;1.90;;
14903;SDS011;7543;53.148;8.234;2023-10-09T02:56:39;4.47;;;1.67;;
14903;SDS011;7543;53.148;8.234;2023-10-09T02:59:16;5.50;;;1.63;;
14903;SDS011;7543;53.148;8.234;2023-10-09T03:01:52;3.40;;;1.70;;
14903;SDS011;7543;53.148;8.234;2023-10-09T03:04:20;4.97;;;1.80;;
14903;SDS011;7543;53.148;8.234;2023-10-09T03:06:50;2.47;;;1.70;;
14903;SDS011;7543;53.148;8.234;2023-10-09T03:09:24;3.40;;;2.07;;
14903;SDS011;7543;53.148;8.234;2023-10-09T03:11:58;2.20;;;1.70;;
14903;SDS011;7543;53.148;8.234;2023-10-09T03:14:30;4.37;;;1.90;;
14903;SDS011;7543;53.148;8.234;2023-10-09T03:17:02;4.87;;;2.00;;
14903;SDS011;7543;53.148;8.234;2023-10-09T03:19:31;6.27;;;2.10;;
14903;SDS011;7543;53.148;8.234;2023-10-09T03:22:04;5.23;;;2.10;;
14903;SDS011;7543;53.148;8.234;2023-10-09T03:24:37;4.00;;;2.23;;
14903;SDS011;7543;53.148;8.234;2023-10-09T03:27:07;6.33;;;2.27;;
14903;SDS011;7543;53.148;8.234;2023-10-09T03:29:35;4.27;;;2.53;;
14903;SDS011;7543;53.148;8.234;2023-10-09T03:32:03;4.57;;;2.47;;
14903;SDS011;7543;53.148;8.234;2023-10-09T03:34:35;5.90;;;2.13;;
14903;SDS011;7543;53.148;8.234;2023-10-09T03:37:09;4.00;;;2.40;;
14903;SDS011;7543;53.148;8.234;2023-10-09T03:39:49;4.83;;;2.33;;
14903;SDS011;7543;53.148;8.234;2023-10-09T03:42:26;5.20;;;2.27;;
14903;SDS011;7543;53.148;8.234;2023-10-09T03:44:57;7.40;;;3.27;;
14903;SDS011;7543;53.148;8.234;2023-10-09T03:47:26;4.23;;;2.60;;
14903;SDS011;7543;53.148;8.234;2023-10-09T03:49:54;7.00;;;3.13;;
14903;SDS011;7543;53.148;8.234;2023-10-09T03:52:29;5.07;;;2.83;;
14903;SDS011;7543;53.148;8.234;2023-10-09T03:54:58;5.57;;;2.83;;
14903;SDS011;7543;53.148;8.234;2023-10-09T03:57:39;7.77;;;3.30;;
14903;SDS011;7543;53.148;8.234;2023-10-09T04:00:18;7.03;;;3.17;;
14903;SDS011;7543;53.148;8.234;2023-10-09T04:02:58;7.77;;;3.93;;
14903;SDS011;7543;53.148;8.234;2023-10-09T04:05:27;6.43;;;3.60;;
14903;SDS011;7543;53.148;8.234;2023-10-09T04:07:55;6.63;;;3.63;;
14903;SDS011;7543;53.148;8.234;2023-10-09T04:10:34;10.03;;;3.60;;
14903;SDS011;7543;53.148;8.234;2023-10-09T04:13:25;10.13;;;4.20;;
14903;SDS011;7543;53.148;8.234;2023-10-09T04:16:09;7.60;;;3.90;;
14903;SDS011;7543;53.148;8.234;2023-10-09T04:18:57;8.33;;;4.10;;
14903;SDS011;7543;53.148;8.234;2023-10-09T04:21:26;10.70;;;4.07;;
14903;SDS011;7543;53.148;8.234;2023-10-09T04:24:01;6.97;;;4.03;;
14903;SDS011;7543;53.148;8.234;2023-10-09T04:26:53;9.63;;;4.57;;
14903;SDS011;7543;53.148;8.234;2023-10-09T04:29:31;8.23;;;4.10;;
14903;SDS011;7543;53.148;8.234;2023-10-09T04:32:05;11.87;;;4.73;;
14903;SDS011;7543;53.148;8.234;2023-10-09T04:34:42;10.37;;;4.90;;
14903;SDS011;7543;53.148;8.234;2023-10-09T04:37:16;8.00;;;4.47;;
14903;SDS011;7543;53.148;8.234;2023-10-09T04:40:09;9.60;;;4.73;;
14903;SDS011;7543;53.148;8.234;2023-10-09T04:42:52;8.57;;;4.50;;
14903;SDS011;7543;53.148;8.234;2023-10-09T04:45:38;12.13;;;4.83;;
14903;SDS011;7543;53.148;8.234;2023-10-09T04:48:23;11.67;;;5.33;;
14903;SDS011;7543;53.148;8.234;2023-10-09T04:51:04;10.20;;;5.17;;
14903;SDS011;7543;53.148;8.234;2023-10-09T04:54:01;13.23;;;5.80;;
14903;SDS011;7543;53.148;8.234;2023-10-09T04:56:39;10.83;;;5.37;;
14903;SDS011;7543;53.148;8.234;2023-10-09T04:59:19;11.23;;;5.90;;
14903;SDS011;7543;53.148;8.234;2023-10-09T05:01:53;15.90;;;5.83;;
14903;SDS011;7543;53.148;8.234;2023-10-09T05:04:31;11.97;;;5.80;;
14903;SDS011;7543;53.148;8.234;2023-10-09T05:07:08;12.53;;;6.00;;
14903;SDS011;7543;53.148;8.234;2023-10-09T05:10:15;12.07;;;6.23;;
14903;SDS011;7543;53.148;8.234;2023-10-09T05:12:44;14.90;;;6.43;;
14903;SDS011;7543;53.148;8.234;2023-10-09T05:15:14;14.47;;;7.60;;
14903;SDS011;7543;53.148;8.234;2023-10-09T05:17:44;13.17;;;7.07;;
14903;SDS011;7543;53.148;8.234;2023-10-09T05:20:23;17.80;;;7.63;;
14903;SDS011;7543;53.148;8.234;2023-10-09T05:23:08;18.47;;;7.70;;
14903;SDS011;7543;53.148;8.234;2023-10-09T05:26:02;14.93;;;6.97;;
14903;SDS011;7543;53.148;8.234;2023-10-09T05:28:49;21.33;;;7.37;;
14903;SDS011;7543;53.148;8.234;2023-10-09T05:31:27;15.53;;;7.50;;
14903;SDS011;7543;53.148;8.234;2023-10-09T05:34:16;13.87;;;7.20;;
14903;SDS011;7543;53.148;8.234;2023-10-09T05:37:00;17.67;;;7.83;;
14903;SDS011;7543;53.148;8.234;2023-10-09T05:39:44;15.80;;;7.23;;
14903;SDS011;7543;53.148;8.234;2023-10-09T05:42:39;18.33;;;8.80;;
14903;SDS011;7543;53.148;8.234;2023-10-09T05:45:27;18.97;;;8.10;;
14903;SDS011;7543;53.148;8.234;2023-10-09T05:48:13;19.30;;;9.10;;
14903;SDS011;7543;53.148;8.234;2023-10-09T05:51:03;20.93;;;8.83;;
14903;SDS011;7543;53.148;8.234;2023-10-09T05:53:46;18.73;;;9.17;;
14903;SDS011;7543;53.148;8.234;2023-10-09T05:56:40;18.00;;;9.03;;
14903;SDS011;7543;53.148;8.234;2023-10-09T05:59:26;15.37;;;8.60;;
14903;SDS011;7543;53.148;8.234;2023-10-09T06:02:11;16.27;;;8.50;;
14903;SDS011;7543;53.148;8.234;2023-10-09T06:05:02;20.93;;;9.70;;
14903;SDS011;7543;53.148;8.234;2023-10-09T06:07:47;19.97;;;9.60;;
14903;SDS011;7543;53.148;8.234;2023-10-09T06:10:31;17.57;;;8.50;;
14903;SDS011;7543;53.148;8.234;2023-10-09T06:13:09;22.63;;;9.60;;
14903;SDS011;7543;53.148;8.234;2023-10-09T06:16:27;19.77;;;9.63;;
14903;SDS011;7543;53.148;8.234;2023-10-09T06:19:27;18.07;;;9.13;;
14903;SDS011;7543;53.148;8.234;2023-10-09T06:21:55;22.50;;;10.13;;
14903;SDS011;7543;53.148;8.234;2023-10-09T06:24:43;17.43;;;9.10;;
14903;SDS011;7543;53.148;8.234;2023-10-09T06:27:30;20.37;;;10.30;;
14903;SDS011;7543;53.148;8.234;2023-10-09T06:30:26;20.17;;;10.33;;
14903;SDS011;7543;53.148;8.234;2023-10-09T06:32:57;18.87;;;10.33;;
14903;SDS011;7543;53.148;8.234;2023-10-09T06:35:46;23.87;;;10.30;;
14903;SDS011;7543;53.148;8.234;2023-10-09T06:38:22;24.50;;;11.23;;
14903;SDS011;7543;53.148;8.234;2023-10-09T06:40:50;19.03;;;10.30;;
14903;SDS011;7543;53.148;8.234;2023-10-09T06:43:36;19.63;;;10.77;;
14903;SDS011;7543;53.148;8.234;2023-10-09T06:49:33;19.90;;;11.33;;
14903;SDS011;7543;53.148;8.234;2023-10-09T06:52:03;20.70;;;10.77;;
14903;SDS011;7543;53.148;8.234;2023-10-09T06:54:42;20.63;;;10.97;;
14903;SDS011;7543;53.148;8.234;2023-10-09T06:57:17;20.00;;;11.03;;
14903;SDS011;7543;53.148;8.234;2023-10-09T07:00:10;23.57;;;11.00;;
14903;SDS011;7543;53.148;8.234;2023-10-09T07:02:56;25.20;;;10.73;;
14903;SDS011;7543;53.148;8.234;2023-10-09T07:05:26;22.23;;;11.20;;
14903;SDS011;7543;53.148;8.234;2023-10-09T07:08:13;19.47;;;10.67;;
14903;SDS011;7543;53.148;8.234;2023-10-09T07:11:03;20.97;;;10.67;;
14903;SDS011;7543;53.148;8.234;2023-10-09T07:13:49;19.77;;;10.67;;
14903;SDS011;7543;53.148;8.234;2023-10-09T07:16:29;22.80;;;10.80;;
14903;SDS011;7543;53.148;8.234;2023-10-09T07:19:05;18.93;;;10.73;;
14903;SDS011;7543;53.148;8.234;2023-10-09T07:22:01;21.87;;;11.13;;
14903;SDS011;7543;53.148;8.234;2023-10-09T07:24:29;25.03;;;11.03;;
14903;SDS011;7543;53.148;8.234;2023-10-09T07:27:16;20.93;;;11.23;;
14903;SDS011;7543;53.148;8.234;2023-10-09T07:29:45;23.07;;;10.57;;
14903;SDS011;7543;53.148;8.234;2023-10-09T07:32:15;25.50;;;11.60;;
14903;SDS011;7543;53.148;8.234;2023-10-09T07:34:48;23.17;;;11.87;;
14903;SDS011;7543;53.148;8.234;2023-10-09T07:37:29;22.00;;;11.07;;
14903;SDS011;7543;53.148;8.234;2023-10-09T07:40:02;26.43;;;12.17;;
14903;SDS011;7543;53.148;8.234;2023-10-09T07:42:34;26.13;;;11.63;;
14903;SDS011;7543;53.148;8.234;2023-10-09T07:45:12;21.77;;;11.23;;
14903;SDS011;7543;53.148;8.234;2023-10-09T07:47:58;22.67;;;11.07;;
14903;SDS011;7543;53.148;8.234;2023-10-09T07:50:36;18.40;;;10.93;;
14903;SDS011;7543;53.148;8.234;2023-10-09T07:53:19;25.83;;;11.97;;
14903;SDS011;7543;53.148;8.234;2023-10-09T07:55:55;24.07;;;11.83;;
14903;SDS011;7543;53.148;8.234;2023-10-09T07:58:33;19.60;;;10.53;;
14903;SDS011;7543;53.148;8.234;2023-10-09T08:01:13;21.97;;;11.50;;
14903;SDS011;7543;53.148;8.234;2023-10-09T08:03:57;20.00;;;10.87;;
14903;SDS011;7543;53.148;8.234;2023-10-09T08:06:34;20.97;;;11.30;;
14903;SDS011;7543;53.148;8.234;2023-10-09T08:09:11;23.37;;;11.67;;
14903;SDS011;7543;53.148;8.234;2023-10-09T08:11:45;21.67;;;11.63;;
14903;SDS011;7543;53.148;8.234;2023-10-09T08:14:32;18.20;;;10.60;;
14903;SDS011;7543;53.148;8.234;2023-10-09T08:17:12;20.50;;;10.30;;
14903;SDS011;7543;53.148;8.234;2023-10-09T08:19:42;23.47;;;10.83;;
14903;SDS011;7543;53.148;8.234;2023-10-09T08:22:23;21.80;;;10.37;;
14903;SDS011;7543;53.148;8.234;2023-10-09T08:25:11;21.47;;;10.57;;
14903;SDS011;7543;53.148;8.234;2023-10-09T08:27:56;21.30;;;10.63;;
14903;SDS011;7543;53.148;8.234;2023-10-09T08:30:24;21.10;;;10.30;;
14903;SDS011;7543;53.148;8.234;2023-10-09T08:33:07;18.57;;;9.60;;
14903;SDS011;7543;53.148;8.234;2023-10-09T08:35:50;19.63;;;10.37;;
14903;SDS011;7543;53.148;8.234;2023-10-09T08:38:22;19.87;;;9.27;;
14903;SDS011;7543;53.148;8.234;2023-10-09T08:40:55;18.83;;;9.63;;
14903;SDS011;7543;53.148;8.234;2023-10-09T08:43:25;18.27;;;9.77;;
14903;SDS011;7543;53.148;8.234;2023-10-09T08:45:57;20.27;;;9.47;;
14903;SDS011;7543;53.148;8.234;2023-10-09T08:48:29;23.20;;;9.73;;
14903;SDS011;7543;53.148;8.234;2023-10-09T08:50:58;18.27;;;10.07;;
14903;SDS011;7543;53.148;8.234;2023-10-09T08:53:37;17.77;;;8.87;;
14903;SDS011;7543;53.148;8.234;2023-10-09T08:56:14;15.87;;;8.30;;
14903;SDS011;7543;53.148;8.234;2023-10-09T08:58:49;19.87;;;9.53;;
14903;SDS011;7543;53.148;8.234;2023-10-09T09:01:19;18.70;;;9.13;;
14903;SDS011;7543;53.148;8.234;2023-10-09T09:03:53;17.03;;;8.77;;
14903;SDS011;7543;53.148;8.234;2023-10-09T09:06:23;18.73;;;9.20;;
14903;SDS011;7543;53.148;8.234;2023-10-09T09:08:51;19.63;;;8.20;;
14903;SDS011;7543;53.148;8.234;2023-10-09T09:11:27;20.10;;;8.10;;
14903;SDS011;7543;53.148;8.234;2023-10-09T09:14:03;16.10;;;8.73;;
14903;SDS011;7543;53.148;8.234;2023-10-09T09:16:45;17.60;;;8.83;;
14903;SDS011;7543;53.148;8.234;2023-10-09T09:19:16;17.97;;;7.87;;
14903;SDS011;7543;53.148;8.234;2023-10-09T09:21:49;14.03;;;8.27;;
14903;SDS011;7543;53.148;8.234;2023-10-09T09:24:21;15.97;;;9.07;;
14903;SDS011;7543;53.148;8.234;2023-10-09T09:27:01;19.27;;;9.40;;
14903;SDS011;7543;53.148;8.234;2023-10-09T09:29:45;15.53;;;7.97;;
14903;SDS011;7543;53.148;8.234;2023-10-09T09:32:26;16.77;;;7.87;;
14903;SDS011;7543;53.148;8.234;2023-10-09T09:34:56;14.60;;;7.60;;
14903;SDS011;7543;53.148;8.234;2023-10-09T09:37:28;12.17;;;7.10;;
14903;SDS011;7543;53.148;8.234;2023-10-09T09:40:00;14.53;;;7.27;;
14903;SDS011;7543;53.148;8.234;2023-10-09T09:42:43;13.73;;;7.40;;
14903;SDS011;7543;53.148;8.234;2023-10-09T09:45:15;13.13;;;7.30;;
14903;SDS011;7543;53.148;8.234;2023-10-09T09:47:52;13.80;;;6.53;;
14903;SDS011;7543;53.148;8.234;2023-10-09T09:50:30;14.33;;;7.00;;
14903;SDS011;7543;53.148;8.234;2023-10-09T09:53:01;11.30;;;7.07;;
14903;SDS011;7543;53.148;8.234;2023-10-09T09:55:34;14.83;;;6.50;;
14903;SDS011;7543;53.148;8.234;2023-10-09T09:58:15;14.77;;;6.53;;
14903;SDS011;7543;53.148;8.234;2023-10-09T10:01:03;13.97;;;6.07;;
14903;SDS011;7543;53.148;8.234;2023-10-09T10:03:43;11.90;;;6.20;;
14903;SDS011;7543;53.148;8.234;2023-10-09T10:06:17;10.57;;;5.90;;
14903;SDS011;7543;53.148;8.234;2023-10-09T10:08:47;11.60;;;6.20;;
14903;SDS011;7543;53.148;8.234;2023-10-09T10:11:43;12.20;;;6.30;;
14903;SDS011;7543;53.148;8.234;2023-10-09T10:14:13;11.47;;;5.87;;
14903;SDS011;7543;53.148;8.234;2023-10-09T10:17:07;12.53;;;6.27;;
14903;SDS011;7543;53.148;8.234;2023-10-09T10:22:41;13.13;;;5.87;;
14903;SDS011;7543;53.148;8.234;2023-10-09T10:28:18;10.73;;;5.70;;
14903;SDS011;7543;53.148;8.234;2023-10-09T10:31:10;9.97;;;5.80;;
14903;SDS011;7543;53.148;8.234;2023-10-09T10:36:42;11.20;;;5.17;;
14903;SDS011;7543;53.148;8.234;2023-10-09T10:39:13;13.20;;;5.60;;
14903;SDS011;7543;53.148;8.234;2023-10-09T10:41:54;11.83;;;5.03;;
14903;SDS011;7543;53.148;8.234;2023-10-09T10:44:26;10.80;;;5.00;;
14903;SDS011;7543;53.148;8.234;2023-10-09T10:47:05;8.20;;;4.80;;
14903;SDS011;7543;53.148;8.234;2023-10-09T10:49:49;12.80;;;5.07;;
14903;SDS011;7543;53.148;8.234;2023-10-09T10:52:22;10.73;;;4.80;;
14903;SDS011;7543;53.148;8.234;2023-10-09T10:55:09;9.73;;;4.90;;
14903;SDS011;7543;53.148;8.234;2023-10-09T10:57:44;7.07;;;4.07;;
14903;SDS011;7543;53.148;8.234;2023-10-09T11:00:27;9.03;;;4.27;;
14903;SDS011;7543;53.148;8.234;2023-10-09T11:03:18;7.03;;;4.30;;
14903;SDS011;7543;53.148;8.234;2023-10-09T11:06:01;6.47;;;3.90;;
14903;SDS011;7543;53.148;8.234;2023-10-09T11:08:43;7.63;;;3.87;;
14903;SDS011;7543;53.148;8.234;2023-10-09T11:11:24;5.70;;;3.97;;
14903;SDS011;7543;53.148;8.234;2023-10-09T11:14:07;7.00;;;3.13;;
14903;SDS011;7543;53.148;8.234;2023-10-09T11:16:41;5.80;;;3.17;;
14903;SDS011;7543;53.148;8.234;2023-10-09T11:19:11;5.07;;;2.77;;
14903;SDS011;7543;53.148;8.234;2023-10-09T11:21:52;4.73;;;2.27;;
14903;SDS011;7543;53.148;8.234;2023-10-09T11:24:41;4.73;;;2.40;;
14903;SDS011;7543;53.148;8.234;2023-10-09T11:27:12;4.20;;;2.43;;
14903;SDS011;7543;53.148;8.234;2023-10-09T11:29:49;3.83;;;2.43;;
14903;SDS011;7543;53.148;8.234;2023-10-09T11:32:35;4.80;;;2.33;;
14903;SDS011;7543;53.148;8.234;2023-10-09T11:35:12;3.60;;;2.30;;
14903;SDS011;7543;53.148;8.234;2023-10-09T11:37:55;4.53;;;2.33;;
14903;SDS011;7543;53.148;8.234;2023-10-09T11:40:32;2.27;;;1.90;;
14903;SDS011;7543;53.148;8.234;2023-10-09T11:43:18;2.30;;;1.50;;
14903;SDS011;7543;53.148;8.234;2023-10-09T11:46:11;3.93;;;2.10;;
14903;SDS011;7543;53.148;8.234;2023-10-09T11:49:04;4.50;;;2.17;;
14903;SDS011;7543;53.148;8.234;2023-10-09T11:52:09;2.20;;;1.40;;
14903;SDS011;7543;53.148;8.234;2023-10-09T11:55:03;4.03;;;1.77;;
14903;SDS011;7543;53.148;8.234;2023-10-09T11:57:33;3.37;;;1.60;;
14903;SDS011;7543;53.148;8.234;2023-10-09T12:00:02;4.47;;;1.60;;
14903;SDS011;7543;53.148;8.234;2023-10-09T12:02:54;2.83;;;1.83;;
14903;SDS011;7543;53.148;8.234;2023-10-09T12:05:32;3.97;;;1.60;;
14903;SDS011;7543;53.148;8.234;2023-10-09T12:08:03;2.23;;;1.50;;
14903;SDS011;7543;53.148;8.234;2023-10-09T12:10:35;3.10;;;1.83;;
14903;SDS011;7543;53.148;8.234;2023-10-09T12:13:06;3.33;;;2.10;;
14903;SDS011;7543;53.148;8.234;2023-10-09T12:15:35;4.13;;;1.80;;
14903;SDS011;7543;53.148;8.234;2023-10-09T12:18:08;4.03;;;1.57;;
14903;SDS011;7543;53.148;8.234;2023-10-09T12:20:41;4.70;;;1.90;;
14903;SDS011;7543;53.148;8.234;2023-10-09T12:23:18;4.00;;;1.80;;
14903;SDS011;7543;53.148;8.234;2023-10-09T12:25:54;3.33;;;1.67;;
14903;SDS011;7543;53.148;8.234;2023-10-09T12:28:25;5.67;;;2.00;;
14903;SDS011;7543;53.148;8.234;2023-10-09T12:30:55;4.27;;;1.90;;
14903;SDS011;7543;53.148;8.234;2023-10-09T12:33:30;2.73;;;1.40;;
14903;SDS011;7543;53.148;8.234;2023-10-09T12:35:58;2.80;;;1.40;;
14903;SDS011;7543;53.148;8.234;2023-10-09T12:38:35;3.83;;;1.60;;
14903;SDS011;7543;53.148;8.234;2023-10-09T12:44:10;3.57;;;1.60;;
14903;SDS011;7543;53.148;8.234;2023-10-09T12:46:44;6.03;;;1.90;;
14903;SDS011;7543;53.148;8.234;2023-10-09T12:49:25;4.83;;;1.93;;
14903;SDS011;7543;53.148;8.234;2023-10-09T12:51:58;6.53;;;1.90;;
14903;SDS011;7543;53.148;8.234;2023-10-09T12:54:54;3.83;;;1.70;;
14903;SDS011;7543;53.148;8.234;2023-10-09T12:57:22;4.17;;;1.80;;
14903;SDS011;7543;53.148;8.234;2023-10-09T12:59:52;3.33;;;1.80;;
14903;SDS011;7543;53.148;8.234;2023-10-09T13:02:27;3.20;;;1.60;;
14903;SDS011;7543;53.148;8.234;2023-10-09T13:04:58;4.10;;;1.67;;
14903;SDS011;7543;53.148;8.234;2023-10-09T13:07:30;7.97;;;2.37;;
14903;SDS011;7543;53.148;8.234;2023-10-09T13:10:00;5.60;;;2.07;;
14903;SDS011;7543;53.148;8.234;2023-10-09T13:12:39;8.83;;;2.13;;
14903;SDS011;7543;53.148;8.234;2023-10-09T13:15:11;7.60;;;2.20;;
14903;SDS011;7543;53.148;8.234;2023-10-09T13:17:43;7.90;;;2.00;;
14903;SDS011;7543;53.148;8.234;2023-10-09T13:20:11;6.10;;;1.93;;
14903;SDS011;7543;53.148;8.234;2023-10-09T13:22:40;4.17;;;1.70;;
14903;SDS011;7543;53.148;8.234;2023-10-09T13:25:10;8.23;;;2.00;;
14903;SDS011;7543;53.148;8.234;2023-10-09T13:27:46;5.70;;;2.00;;
14903;SDS011;7543;53.148;8.234;2023-10-09T13:30:17;12.83;;;2.30;;
14903;SDS011;7543;53.148;8.234;2023-10-09T13:32:50;5.87;;;1.83;;
14903;SDS011;7543;53.148;8.234;2023-10-09T13:35:18;6.33;;;1.70;;
14903;SDS011;7543;53.148;8.234;2023-10-09T13:38:06;7.83;;;1.97;;
14903;SDS011;7543;53.148;8.234;2023-10-09T13:40:40;6.00;;;1.50;;
14903;SDS011;7543;53.148;8.234;2023-10-09T13:43:10;6.93;;;1.90;;
14903;SDS011;7543;53.148;8.234;2023-10-09T13:45:43;7.07;;;1.87;;
14903;SDS011;7543;53.148;8.234;2023-10-09T13:48:16;4.23;;;1.80;;
14903;SDS011;7543;53.148;8.234;2023-10-09T13:50:50;3.90;;;1.70;;
14903;SDS011;7543;53.148;8.234;2023-10-09T13:53:21;6.03;;;2.03;;
14903;SDS011;7543;53.148;8.234;2023-10-09T13:55:56;4.77;;;1.73;;
14903;SDS011;7543;53.148;8.234;2023-10-09T13:58:25;7.00;;;1.63;;
14903;SDS011;7543;53.148;8.234;2023-10-09T14:00:54;9.40;;;2.13;;
14903;SDS011;7543;53.148;8.234;2023-10-09T14:03:25;4.53;;;1.93;;
14903;SDS011;7543;53.148;8.234;2023-10-09T14:06:01;6.67;;;2.00;;
14903;SDS011;7543;53.148;8.234;2023-10-09T14:08:37;4.53;;;1.90;;
14903;SDS011;7543;53.148;8.234;2023-10-09T14:11:15;5.20;;;1.80;;
14903;SDS011;7543;53.148;8.234;2023-10-09T14:13:52;3.73;;;1.60;;
14903;SDS011;7543;53.148;8.234;2023-10-09T14:16:22;4.80;;;1.80;;
14903;SDS011;7543;53.148;8.234;2023-10-09T14:18:54;6.27;;;2.10;;
14903;SDS011;7543;53.148;8.234;2023-10-09T14:21:34;4.70;;;1.73;;
14903;SDS011;7543;53.148;8.234;2023-10-09T14:24:04;5.10;;;2.10;;
14903;SDS011;7543;53.148;8.234;2023-10-09T14:26:46;4.63;;;1.93;;
14903;SDS011;7543;53.148;8.234;2023-10-09T14:29:18;4.27;;;1.73;;
14903;SDS011;7543;53.148;8.234;2023-10-09T14:31:53;7.07;;;2.07;;
14903;SDS011;7543;53.148;8.234;2023-10-09T14:34:27;6.53;;;1.70;;
14903;SDS011;7543;53.148;8.234;2023-10-09T14:36:59;7.83;;;1.83;;
14903;SDS011;7543;53.148;8.234;2023-10-09T14:39:29;6.60;;;1.43;;
14903;SDS011;7543;53.148;8.234;2023-10-09T14:42:01;6.00;;;1.73;;
14903;SDS011;7543;53.148;8.234;2023-10-09T14:44:36;3.80;;;1.70;;
14903;SDS011;7543;53.148;8.234;2023-10-09T14:47:05;6.60;;;1.60;;
14903;SDS011;7543;53.148;8.234;2023-10-09T14:49:33;7.27;;;1.90;;
14903;SDS011;7543;53.148;8.234;2023-10-09T14:52:04;5.63;;;1.83;;
14903;SDS011;7543;53.148;8.234;2023-10-09T14:54:34;6.40;;;1.53;;
14903;SDS011;7543;53.148;8.234;2023-10-09T14:57:04;3.90;;;1.70;;
14903;SDS011;7543;53.148;8.234;2023-10-09T14:59:35;5.77;;;1.67;;
14903;SDS011;7543;53.148;8.234;2023-10-09T15:02:04;2.87;;;1.63;;
14903;SDS011;7543;53.148;8.234;2023-10-09T15:04:33;4.87;;;2.20;;
14903;SDS011;7543;53.148;8.234;2023-10-09T15:07:06;11.07;;;1.80;;
14903;SDS011;7543;53.148;8.234;2023-10-09T15:09:34;6.00;;;1.40;;
14903;SDS011;7543;53.148;8.234;2023-10-09T15:12:04;3.20;;;1.40;;
14903;SDS011;7543;53.148;8.234;2023-10-09T15:14:36;4.63;;;1.20;;
14903;SDS011;7543;53.148;8.234;2023-10-09T15:17:06;6.23;;;1.43;;
14903;SDS011;7543;53.148;8.234;2023-10-09T15:19:34;4.30;;;1.40;;
14903;SDS011;7543;53.148;8.234;2023-10-09T15:22:03;4.43;;;1.50;;
14903;SDS011;7543;53.148;8.234;2023-10-09T15:24:36;3.80;;;1.50;;
14903;SDS011;7543;53.148;8.234;2023-10-09T15:27:06;6.27;;;1.80;;
14903;SDS011;7543;53.148;8.234;2023-10-09T15:29:36;2.17;;;1.30;;
14903;SDS011;7543;53.148;8.234;2023-10-09T15:32:09;4.40;;;1.60;;
14903;SDS011;7543;53.148;8.234;2023-10-09T15:34:42;2.63;;;1.40;;
14903;SDS011;7543;53.148;8.234;2023-10-09T15:37:10;4.13;;;1.60;;
14903;SDS011;7543;53.148;8.234;2023-10-09T15:39:40;3.43;;;1.50;;
14903;SDS011;7543;53.148;8.234;2023-10-09T15:42:11;1.70;;;1.10;;
14903;SDS011;7543;53.148;8.234;2023-10-09T15:44:40;3.30;;;1.30;;
14903;SDS011;7543;53.148;8.234;2023-10-09T15:47:08;4.50;;;1.20;;
14903;SDS011;7543;53.148;8.234;2023-10-09T15:49:42;5.13;;;1.33;;
14903;SDS011;7543;53.148;8.234;2023-10-09T15:52:15;5.47;;;1.60;;
14903;SDS011;7543;53.148;8.234;2023-10-09T15:54:50;8.30;;;1.63;;
14903;SDS011;7543;53.148;8.234;2023-10-09T15:57:24;5.77;;;1.13;;
14903;SDS011;7543;53.148;8.234;2023-10-09T15:59:52;3.87;;;1.00;;
14903;SDS011;7543;53.148;8.234;2023-10-09T16:02:23;2.10;;;1.03;;
14903;SDS011;7543;53.148;8.234;2023-10-09T16:04:52;3.23;;;1.20;;
14903;SDS011;7543;53.148;8.234;2023-10-09T16:07:24;1.70;;;0.80;;